Time;durP1;ratioP1;P1;durP2;ratioP2;P2;SDS_P1;SDS_P2;PMS_P1;PMS_P2;Temp;Humidity;BMP_temperature;BMP_pressure;BME280_temperature;BME280_humidity;BME280_pressure;Samples;Min_cycle;Max_cycle;Signal;HPM_P1;HPM_P2
2022/07/22 00:01:29;;;;;;;9.20;5.60;;;;;;;20.89;54.93;99839.33;214653;1277;140879;-65
2022/07/22 00:06:35;;;;;;;4.20;3.80;;;;;;;20.77;55.30;99853.70;213878;1278;142669;-64
2022/07/22 00:11:38;;;;;;;7.00;5.30;;;;;;;20.57;55.59;99847.73;213052;1277;141047;-65
2022/07/22 00:16:41;;;;;;;6.10;4.90;;;;;;;20.40;55.99;99841.42;214215;1279;140222;-67
2022/07/22 00:21:44;;;;;;;7.30;6.10;;;;;;;20.19;56.44;99843.36;213362;1277;141109;-64
2022/07/22 00:26:47;;;;;;;7.60;5.90;;;;;;;20.00;56.61;99841.05;212888;1277;141133;-64
2022/07/22 00:31:49;;;;;;;6.90;5.20;;;;;;;19.81;56.85;99841.36;214145;1279;140357;-64
2022/07/22 00:36:52;;;;;;;13.20;6.00;;;;;;;19.59;57.12;99834.20;213603;1279;139743;-63
2022/07/22 00:41:56;;;;;;;5.60;5.10;;;;;;;19.43;57.66;99835.48;213962;1278;142570;-62
2022/07/22 00:46:59;;;;;;;7.20;5.00;;;;;;;19.33;58.15;99838.94;213542;1277;141177;-65
2022/07/22 00:52:02;;;;;;;11.00;6.10;;;;;;;19.27;58.24;99841.46;212945;1277;141813;-64
2022/07/22 00:57:05;;;;;;;8.60;6.40;;;;;;;19.15;58.41;99836.54;212977;1277;247909;-64
2022/07/22 01:02:09;;;;;;;10.20;6.70;;;;;;;18.84;58.67;99838.66;213175;1277;140609;-64
2022/07/22 01:07:12;;;;;;;9.20;5.90;;;;;;;18.64;59.35;99839.23;212899;1277;140089;-64
2022/07/22 01:12:14;;;;;;;9.10;5.70;;;;;;;18.39;59.93;99840.32;213430;1277;139192;-66
2022/07/22 01:17:17;;;;;;;13.70;5.30;;;;;;;18.25;60.64;99841.58;213964;1277;140058;-66
2022/07/22 01:22:20;;;;;;;12.20;5.10;;;;;;;18.17;60.66;99841.48;212567;1276;142094;-63
2022/07/22 01:27:23;;;;;;;7.00;6.10;;;;;;;18.11;61.16;99842.70;212732;1277;143255;-64
2022/07/22 01:32:28;;;;;;;9.40;5.60;;;;;;;17.95;61.18;99839.44;214083;1277;140139;-64
2022/07/22 01:37:33;;;;;;;7.90;6.00;;;;;;;17.80;61.60;99836.98;213693;1277;140811;-65
2022/07/22 01:42:36;;;;;;;6.70;6.10;;;;;;;17.70;61.97;99830.81;214324;1277;139910;-65
2022/07/22 01:47:38;;;;;;;10.00;5.80;;;;;;;17.69;62.22;99835.78;214790;1278;139379;-64
2022/07/22 01:52:41;;;;;;;11.80;6.10;;;;;;;17.68;62.55;99837.67;214981;1277;140334;-64
2022/07/22 01:57:44;;;;;;;7.10;5.60;;;;;;;17.67;62.58;99836.65;215577;1277;142298;-63
2022/07/22 02:02:47;;;;;;;13.90;6.50;;;;;;;17.61;62.50;99831.64;214973;1277;139229;-63
2022/07/22 02:07:50;;;;;;;6.80;5.60;;;;;;;17.46;62.67;99838.93;214087;1277;141931;-64
2022/07/22 02:12:53;;;;;;;9.70;5.60;;;;;;;17.36;62.96;99840.02;213434;1278;139960;-64
2022/07/22 02:17:56;;;;;;;6.00;4.80;;;;;;;17.28;63.30;99853.09;213611;1277;139011;-64
2022/07/22 02:23:00;;;;;;;6.50;5.60;;;;;;;17.31;63.59;99851.30;213988;1278;140825;-65
2022/07/22 02:28:04;;;;;;;8.20;5.80;;;;;;;17.31;63.61;99859.27;214664;1277;139861;-66
2022/07/22 02:33:06;;;;;;;6.30;5.20;;;;;;;17.21;63.46;99862.64;213556;1278;139440;-64
2022/07/22 02:38:10;;;;;;;7.60;5.70;;;;;;;16.98;63.93;99869.46;213465;1279;140922;-65
2022/07/22 02:43:14;;;;;;;9.90;5.10;;;;;;;16.83;64.43;99866.20;213133;1278;140992;-66
2022/07/22 02:48:17;;;;;;;6.90;6.20;;;;;;;16.79;64.71;99867.15;212977;1279;141761;-65
2022/07/22 02:53:20;;;;;;;6.40;5.30;;;;;;;16.76;64.96;99868.60;213599;1278;140710;-65
2022/07/22 02:58:23;;;;;;;10.00;5.70;;;;;;;16.61;65.05;99866.70;213615;1277;219435;-65
2022/07/22 03:03:25;;;;;;;10.10;6.60;;;;;;;16.53;65.46;99868.84;212901;1278;140334;-64
2022/07/22 03:08:28;;;;;;;6.60;5.20;;;;;;;16.51;65.70;99871.72;213085;1277;141596;-63
2022/07/22 03:13:32;;;;;;;7.90;5.50;;;;;;;16.55;65.91;99869.77;213657;1278;221765;-64
2022/07/22 03:18:35;;;;;;;8.80;6.30;;;;;;;16.57;66.06;99875.95;213361;1277;140769;-62
2022/07/22 03:23:38;;;;;;;42.20;7.50;;;;;;;16.62;66.42;99883.81;213254;1277;139864;-62
2022/07/22 03:28:41;;;;;;;10.10;6.70;;;;;;;16.75;66.60;99878.95;212613;1279;140980;-64
2022/07/22 03:33:43;;;;;;;6.30;4.90;;;;;;;16.79;66.46;99882.98;215417;1277;140436;-64
2022/07/22 03:38:46;;;;;;;20.00;6.70;;;;;;;16.72;66.49;99889.48;215321;1278;139512;-64
2022/07/22 03:43:49;;;;;;;19.00;14.20;;;;;;;16.70;66.84;99883.09;215666;1276;140024;-64
2022/07/22 03:48:52;;;;;;;28.10;17.90;;;;;;;16.82;67.14;99877.67;215690;1277;142650;-64
2022/07/22 03:53:56;;;;;;;25.60;13.50;;;;;;;17.07;67.36;99883.70;215329;1276;140954;-64
2022/07/22 03:58:59;;;;;;;19.50;10.80;;;;;;;17.38;67.38;99891.90;215538;1277;141305;-64
2022/07/22 04:04:02;;;;;;;12.20;8.00;;;;;;;17.74;67.07;99891.81;213975;1277;140596;-64
2022/07/22 04:09:06;;;;;;;17.50;9.50;;;;;;;17.84;66.74;99895.64;213129;1277;139804;-64
2022/07/22 04:14:09;;;;;;;21.20;9.10;;;;;;;17.97;67.03;99895.41;214324;1277;151799;-64
2022/07/22 04:19:13;;;;;;;13.10;7.80;;;;;;;18.38;67.05;99900.13;213850;1277;139990;-62
2022/07/22 04:24:15;;;;;;;17.00;8.70;;;;;;;18.64;66.70;99892.33;214043;1277;140482;-63
2022/07/22 04:29:21;;;;;;;17.10;9.20;;;;;;;19.03;66.84;99888.38;213019;1277;141272;-63
2022/07/22 04:34:23;;;;;;;9.80;8.50;;;;;;;19.60;66.65;99902.43;213225;1279;140444;-64
2022/07/22 04:39:26;;;;;;;10.00;8.00;;;;;;;20.20;66.12;99914.27;213192;1278;140762;-63
2022/07/22 04:44:29;;;;;;;12.00;9.40;;;;;;;21.17;65.32;99924.48;213696;1277;140620;-64
2022/07/22 04:49:32;;;;;;;12.20;10.90;;;;;;;21.87;64.54;99931.31;213499;1277;139324;-63
2022/07/22 04:54:37;;;;;;;14.30;11.90;;;;;;;22.72;63.42;99923.09;213456;1277;139526;-63
2022/07/22 04:59:41;;;;;;;12.30;10.80;;;;;;;23.24;62.79;99925.97;214226;1277;140571;-64
2022/07/22 05:04:45;;;;;;;17.60;11.90;;;;;;;23.48;62.08;99940.38;213721;1277;139712;-63
2022/07/22 05:09:50;;;;;;;12.40;11.10;;;;;;;24.16;60.55;99959.31;213345;1277;139896;-64
2022/07/22 05:14:53;;;;;;;18.70;11.90;;;;;;;24.33;60.22;99960.70;215025;1277;139865;-65
2022/07/22 05:19:57;;;;;;;16.20;13.00;;;;;;;24.66;59.04;99963.34;213852;1277;141256;-64
2022/07/22 05:25:00;;;;;;;18.70;11.50;;;;;;;26.37;56.72;99949.03;213107;1279;140439;-64
2022/07/22 05:30:03;;;;;;;14.20;12.70;;;;;;;29.56;53.66;99947.00;215304;1277;140575;-65
2022/07/22 05:35:06;;;;;;;12.00;10.50;;;;;;;32.04;50.00;99965.88;215667;1277;139483;-65
2022/07/22 05:40:09;;;;;;;10.90;9.90;;;;;;;33.05;46.94;99966.09;215606;1277;144024;-66
2022/07/22 05:45:14;;;;;;;10.40;8.80;;;;;;;33.53;44.89;99960.42;214385;1277;139242;-66
2022/07/22 05:50:17;;;;;;;9.20;8.50;;;;;;;34.94;42.95;99956.98;213784;1277;139436;-65
2022/07/22 05:55:20;;;;;;;8.80;7.80;;;;;;;35.67;41.45;99958.55;213298;1277;557841;-64
2022/07/22 06:00:23;;;;;;;8.10;7.50;;;;;;;35.82;40.19;99953.92;213047;1277;139456;-64
2022/07/22 06:05:27;;;;;;;9.30;8.00;;;;;;;36.10;39.33;99945.67;213813;1279;139204;-67
2022/07/22 06:10:41;;;;;;;7.70;6.70;;;;;;;36.06;38.20;99941.73;213423;1279;138860;-66
2022/07/22 06:15:44;;;;;;;;;;;;;;;36.96;37.36;99937.79;214150;1277;139382;-65
2022/07/22 06:20:47;;;;;;;8.40;6.50;;;;;;;37.49;36.34;99932.21;213615;1278;126596;-64
2022/07/22 06:25:49;;;;;;;10.20;6.70;;;;;;;37.79;35.44;99936.39;213556;1279;140157;-65
2022/07/22 06:30:52;;;;;;;6.90;6.30;;;;;;;37.82;34.68;99931.34;213002;1279;139714;-64
2022/07/22 06:35:55;;;;;;;6.70;6.00;;;;;;;37.88;34.34;99927.61;213657;1278;139526;-65
2022/07/22 06:40:58;;;;;;;8.60;7.00;;;;;;;37.43;33.74;99922.64;214079;1279;140601;-65
2022/07/22 06:46:02;;;;;;;6.70;6.10;;;;;;;37.09;33.76;99911.80;214018;1278;140526;-64
2022/07/22 06:51:05;;;;;;;8.30;6.20;;;;;;;36.90;33.86;99904.89;213953;1277;140182;-65
2022/07/22 06:56:08;;;;;;;7.10;6.30;;;;;;;36.31;33.76;99906.75;212890;1279;141794;-64
2022/07/22 07:01:18;;;;;;;9.30;6.60;;;;;;;35.46;34.12;99914.92;213873;1278;140260;-65
2022/07/22 07:06:22;;;;;;;7.90;7.20;;;;;;;34.71;34.59;99914.23;213315;1277;140653;-64
2022/07/22 07:11:25;;;;;;;9.90;7.70;;;;;;;34.31;35.19;99918.77;213628;1278;139965;-65
2022/07/22 07:16:28;;;;;;;9.80;6.90;;;;;;;35.08;35.18;99914.59;214104;1278;141127;-64
2022/07/22 07:21:32;;;;;;;6.20;5.80;;;;;;;35.99;34.31;99911.55;213838;1279;140955;-65
2022/07/22 07:26:35;;;;;;;6.90;5.70;;;;;;;37.02;33.75;99914.56;215661;1277;139513;-65
2022/07/22 07:31:39;;;;;;;5.90;5.40;;;;;;;37.49;32.84;99908.86;215178;1277;140138;-68
2022/07/22 07:36:42;;;;;;;6.90;6.10;;;;;;;37.69;32.45;99921.30;215657;1279;139871;-68
2022/07/22 07:41:45;;;;;;;7.50;6.00;;;;;;;37.78;32.05;99935.52;215505;1277;140347;-68
2022/07/22 07:46:58;;;;;;;7.20;5.40;;;;;;;37.74;31.81;99939.05;214377;1278;140076;-66
2022/07/22 07:52:02;;;;;;;7.10;5.40;;;;;;;37.46;31.59;99937.96;213906;1279;140300;-66
2022/07/22 07:57:08;;;;;;;8.40;5.70;;;;;;;37.25;31.65;99941.56;214562;1278;139665;-65
2022/07/22 08:02:12;;;;;;;5.70;5.20;;;;;;;37.03;31.46;99940.52;213212;1278;139047;-66
2022/07/22 08:07:16;;;;;;;5.60;5.10;;;;;;;36.80;31.58;99931.33;212993;1279;139596;-66
2022/07/22 08:12:19;;;;;;;7.90;5.40;;;;;;;36.63;31.67;99919.44;212476;1279;139702;-65
2022/07/22 08:17:22;;;;;;;6.10;5.50;;;;;;;36.46;32.11;99922.47;213615;1278;139135;-65
2022/07/22 08:22:25;;;;;;;6.40;5.40;;;;;;;36.31;31.98;99927.79;213712;1278;139677;-65
2022/07/22 08:27:29;;;;;;;6.80;5.40;;;;;;;36.06;31.83;99943.01;212966;1279;221460;-64
2022/07/22 08:32:33;;;;;;;6.70;5.80;;;;;;;35.61;31.67;99937.39;213642;1278;140896;-65
2022/07/22 08:37:37;;;;;;;5.70;5.30;;;;;;;35.57;32.05;99933.67;213460;1279;139826;-65
2022/07/22 08:42:40;;;;;;;;;;;;;;;35.52;32.20;99934.48;213357;1279;139061;-66
2022/07/22 08:47:48;;;;;;;10.50;6.90;;;;;;;35.40;32.00;99931.89;214010;1279;126576;-67
2022/07/22 08:52:52;;;;;;;6.20;5.60;;;;;;;35.40;32.47;99937.12;214007;1279;139253;-66
2022/07/22 08:57:55;;;;;;;6.90;6.40;;;;;;;35.36;32.44;99936.17;214227;1279;139370;-67
2022/07/22 09:02:58;;;;;;;7.70;7.00;;;;;;;35.41;32.80;99937.59;213041;1279;141435;-68
2022/07/22 09:08:02;;;;;;;;;;;;;;;35.60;32.82;99929.70;212837;1278;139217;-66
2022/07/22 09:13:07;;;;;;;6.30;5.70;;;;;;;35.63;32.70;99935.17;215367;1278;126147;-67
2022/07/22 09:18:10;;;;;;;11.60;7.20;;;;;;;35.65;32.42;99934.94;215457;1278;139945;-69
2022/07/22 09:23:23;;;;;;;7.30;6.60;;;;;;;35.69;32.66;99938.17;215294;1278;141319;-68
2022/07/22 09:28:26;;;;;;;7.90;6.20;;;;;;;35.72;32.69;99941.74;215312;1278;141665;-71
2022/07/22 09:33:32;;;;;;;7.70;6.80;;;;;;;35.29;32.37;99937.73;214958;1279;140284;-67
2022/07/22 09:38:36;;;;;;;5.80;5.20;;;;;;;35.17;32.98;99937.41;214005;1278;140928;-68
2022/07/22 09:43:40;;;;;;;8.00;6.30;;;;;;;35.27;32.85;99942.48;214000;1278;140787;-68
2022/07/22 09:48:43;;;;;;;7.10;6.50;;;;;;;35.28;33.03;99948.73;214176;1279;139353;-67
2022/07/22 09:53:46;;;;;;;6.60;5.50;;;;;;;35.39;33.29;99945.83;214505;1278;140501;-68
2022/07/22 09:58:50;;;;;;;8.10;5.90;;;;;;;35.44;33.09;99948.36;212657;1279;141708;-66
2022/07/22 10:03:55;;;;;;;5.40;4.90;;;;;;;35.51;32.54;99947.77;212790;1279;140391;-68
2022/07/22 10:08:59;;;;;;;7.50;6.10;;;;;;;35.54;32.79;99943.50;214795;1279;139825;-66
2022/07/22 10:14:13;;;;;;;5.60;5.20;;;;;;;35.47;32.35;99940.90;213409;1278;139343;-66
2022/07/22 10:19:24;;;;;;;5.50;5.10;;;;;;;35.30;32.05;99939.40;214087;1279;139336;-67
2022/07/22 10:24:30;;;;;;;5.20;4.80;;;;;;;35.19;32.52;99939.53;213223;1279;141350;-66
2022/07/22 10:29:47;;;;;;;7.10;5.80;;;;;;;34.88;31.69;99935.88;213627;1279;139898;-66
2022/07/22 10:35:00;;;;;;;5.90;4.90;;;;;;;34.95;32.62;99934.70;213232;1279;140489;-66
2022/07/22 10:40:12;;;;;;;4.80;4.40;;;;;;;35.14;32.39;99937.65;213107;1278;141020;-66
2022/07/22 10:45:17;;;;;;;5.70;5.20;;;;;;;35.02;32.10;99937.79;213519;1278;141345;-66
2022/07/22 10:50:36;;;;;;;4.60;4.00;;;;;;;34.71;31.35;99926.35;214293;1279;140851;-65
2022/07/22 10:55:58;;;;;;;6.10;5.60;;;;;;;34.57;32.23;99927.80;213132;1279;139913;-66
2022/07/22 11:01:09;;;;;;;5.30;4.40;;;;;;;34.77;32.30;99931.66;213547;1278;140420;-65
2022/07/22 11:06:25;;;;;;;5.00;4.70;;;;;;;35.04;32.39;99924.03;213148;1279;139979;-67
2022/07/22 11:11:54;;;;;;;5.00;4.60;;;;;;;35.01;31.43;99921.64;213764;1278;141877;-65
2022/07/22 11:17:05;;;;;;;5.60;5.20;;;;;;;34.43;32.13;99919.45;213991;1279;139699;-66
2022/07/22 11:22:09;;;;;;;5.30;4.90;;;;;;;34.22;32.23;99920.33;213552;1278;142347;-64
2022/07/22 11:27:17;;;;;;;5.40;5.10;;;;;;;34.17;32.38;99921.41;215438;1278;139388;-65
2022/07/22 11:32:22;;;;;;;5.40;5.00;;;;;;;33.92;33.12;99914.34;214311;1278;140494;-66
2022/07/22 11:37:31;;;;;;;11.00;6.00;;;;;;;33.75;33.37;99920.00;215005;1278;139941;-66
2022/07/22 11:42:35;;;;;;;6.50;5.90;;;;;;;33.88;33.32;99917.24;212739;1279;139819;-62
2022/07/22 11:47:48;;;;;;;8.50;4.90;;;;;;;34.03;33.29;99914.94;212935;1279;140333;-64
2022/07/22 11:52:54;;;;;;;5.80;5.30;;;;;;;34.30;33.22;99910.87;214556;1279;139239;-64
2022/07/22 11:57:57;;;;;;;6.20;5.10;;;;;;;34.23;32.87;99912.51;212769;1279;139652;-63
2022/07/22 12:03:00;;;;;;;5.70;5.00;;;;;;;34.07;33.11;99905.87;213033;1279;139292;-64
2022/07/22 12:08:04;;;;;;;5.90;4.80;;;;;;;34.04;33.16;99900.71;213000;1279;139303;-64
2022/07/22 12:13:06;;;;;;;100.80;12.60;;;;;;;33.66;33.10;99897.11;213901;1279;139685;-63
2022/07/22 12:18:19;;;;;;;67.20;10.50;;;;;;;33.41;33.40;99894.50;213815;1278;139851;-66
2022/07/22 12:23:25;;;;;;;5.10;4.80;;;;;;;33.29;33.73;99891.73;213008;1279;140073;-63
2022/07/22 12:28:30;;;;;;;5.30;4.90;;;;;;;33.15;33.86;99884.18;212806;1277;139865;-66
2022/07/22 12:33:34;;;;;;;5.60;5.10;;;;;;;33.03;33.85;99880.61;212832;1279;140322;-63
2022/07/22 12:38:36;;;;;;;4.90;4.50;;;;;;;32.85;34.74;99876.91;213762;1277;140850;-66
2022/07/22 12:43:38;;;;;;;5.90;5.30;;;;;;;33.14;34.80;99869.65;213676;1278;139121;-64
2022/07/22 12:48:50;;;;;;;6.20;5.60;;;;;;;33.69;33.98;99863.96;212888;1280;139741;-65
2022/07/22 12:53:53;;;;;;;5.60;5.10;;;;;;;33.98;33.64;99856.36;213109;1281;139689;-65
2022/07/22 12:58:57;;;;;;;5.10;4.70;;;;;;;34.34;32.98;99849.14;214792;1278;141105;-65
2022/07/22 13:04:00;;;;;;;4.80;4.50;;;;;;;34.39;32.98;99849.48;215105;1279;139666;-65
2022/07/22 13:09:03;;;;;;;5.80;4.20;;;;;;;34.30;32.44;99845.81;215167;1278;140175;-65
2022/07/22 13:14:06;;;;;;;4.50;4.20;;;;;;;34.18;32.09;99838.95;213770;1279;140369;-64
2022/07/22 13:19:08;;;;;;;4.90;4.40;;;;;;;33.78;32.10;99839.91;215279;1279;141467;-65
2022/07/22 13:24:12;;;;;;;6.00;4.30;;;;;;;33.49;32.17;99832.26;215218;1279;139685;-66
2022/07/22 13:29:16;;;;;;;4.60;4.20;;;;;;;33.57;32.26;99827.81;215435;1278;139392;-67
2022/07/22 13:34:19;;;;;;;4.30;4.00;;;;;;;33.73;31.90;99826.31;213988;1280;141309;-67
2022/07/22 13:39:22;;;;;;;4.30;3.90;;;;;;;33.92;31.60;99824.11;214730;1278;139886;-66
2022/07/22 13:44:26;;;;;;;4.80;4.30;;;;;;;33.87;31.15;99827.88;214125;1280;140883;-66
2022/07/22 13:49:29;;;;;;;4.30;4.00;;;;;;;33.65;30.85;99820.18;214269;1278;139833;-65
2022/07/22 13:54:36;;;;;;;4.40;4.10;;;;;;;33.51;31.20;99814.50;212840;1279;141629;-64
2022/07/22 13:59:39;;;;;;;4.20;4.00;;;;;;;33.28;31.39;99813.33;213088;1280;154194;-63
2022/07/22 14:04:43;;;;;;;5.20;4.80;;;;;;;32.99;32.05;99815.73;214403;1280;141108;-64
2022/07/22 14:09:47;;;;;;;;;;;;;;;33.02;33.00;99817.48;213322;1278;143038;-65
2022/07/22 14:14:57;;;;;;;5.50;5.10;;;;;;;33.11;33.20;99807.29;214112;1278;128054;-64
2022/07/22 14:20:07;;;;;;;11.30;5.20;;;;;;;33.10;32.23;99803.73;213142;1277;140923;-66
2022/07/22 14:25:11;;;;;;;5.30;4.90;;;;;;;32.79;32.59;99800.42;212809;1277;141254;-65
2022/07/22 14:30:15;;;;;;;5.00;4.30;;;;;;;32.42;33.62;99803.55;213378;1278;140901;-65
2022/07/22 14:35:20;;;;;;;4.70;4.40;;;;;;;32.18;34.42;99805.48;213675;1277;140835;-64
2022/07/22 14:40:23;;;;;;;5.10;4.10;;;;;;;32.22;34.27;99808.95;214516;1277;140561;-65
2022/07/22 14:45:25;;;;;;;5.00;4.70;;;;;;;32.03;34.71;99807.70;212967;1277;139293;-64
2022/07/22 14:50:29;;;;;;;5.20;4.90;;;;;;;31.79;35.06;99808.92;213819;1279;139206;-67
2022/07/22 14:55:33;;;;;;;5.70;5.20;;;;;;;31.62;35.64;99811.12;213938;1278;140170;-64
2022/07/22 15:00:37;;;;;;;6.20;4.70;;;;;;;31.48;35.98;99812.74;213379;1278;138954;-65
2022/07/22 15:05:42;;;;;;;5.00;4.70;;;;;;;31.38;35.86;99813.95;213645;1279;140194;-66
2022/07/22 15:10:46;;;;;;;4.40;4.00;;;;;;;31.34;36.05;99811.27;214073;1278;139898;-65
2022/07/22 15:15:49;;;;;;;4.60;4.30;;;;;;;31.31;36.12;99806.67;215236;1278;140535;-66
2022/07/22 15:20:54;;;;;;;4.70;4.40;;;;;;;31.29;36.54;99802.16;214945;1281;139757;-67
2022/07/22 15:25:59;;;;;;;5.10;4.80;;;;;;;31.28;36.78;99801.13;215222;1279;140337;-65
2022/07/22 15:31:02;;;;;;;6.80;4.40;;;;;;;31.26;36.65;99796.36;215423;1278;139855;-66
2022/07/22 15:36:08;;;;;;;4.80;4.40;;;;;;;31.17;36.92;99794.14;213387;1279;140391;-64
2022/07/22 15:41:12;;;;;;;5.90;5.40;;;;;;;31.05;37.09;99790.70;214078;1279;140024;-65
2022/07/22 15:46:15;;;;;;;4.70;4.30;;;;;;;30.94;37.01;99793.59;215303;1278;139507;-64
2022/07/22 15:51:18;;;;;;;5.20;4.70;;;;;;;30.89;37.69;99784.86;214668;1279;139218;-64
2022/07/22 15:56:20;;;;;;;5.00;4.60;;;;;;;30.91;37.42;99775.69;213375;1278;139565;-65
2022/07/22 16:01:23;;;;;;;5.60;5.10;;;;;;;30.97;37.46;99778.30;214148;1279;139711;-62
2022/07/22 16:06:26;;;;;;;14.60;5.40;;;;;;;31.01;38.59;99776.16;213232;1279;140135;-63
2022/07/22 16:11:31;;;;;;;11.40;4.80;;;;;;;31.18;39.71;99778.55;212772;1279;142080;-63
2022/07/22 16:16:34;;;;;;;5.20;4.90;;;;;;;31.16;38.77;99773.95;213173;1279;141739;-65
2022/07/22 16:21:37;;;;;;;5.40;4.90;;;;;;;31.02;37.79;99774.92;213537;1277;139948;-63
2022/07/22 16:26:41;;;;;;;5.80;5.30;;;;;;;30.93;39.24;99774.53;212935;1279;140172;-65
2022/07/22 16:31:46;;;;;;;5.00;4.60;;;;;;;30.95;38.68;99768.42;213006;1279;139883;-65
2022/07/22 16:36:51;;;;;;;5.30;4.90;;;;;;;31.03;37.50;99771.09;213406;1279;139524;-63
2022/07/22 16:41:54;;;;;;;7.00;5.80;;;;;;;31.11;37.23;99767.94;214057;1278;138986;-63
2022/07/22 16:46:57;;;;;;;5.40;4.80;;;;;;;31.10;36.25;99768.22;215094;1278;139579;-64
2022/07/22 16:52:01;;;;;;;5.10;4.70;;;;;;;30.96;36.21;99766.95;214443;1277;141329;-65
2022/07/22 16:57:03;;;;;;;6.40;5.30;;;;;;;30.84;36.03;99763.72;213073;1278;150091;-65
2022/07/22 17:02:07;;;;;;;5.40;4.90;;;;;;;30.76;36.15;99761.94;214954;1279;139385;-67
2022/07/22 17:07:10;;;;;;;6.00;5.50;;;;;;;30.67;36.35;99761.23;213644;1278;140936;-63
2022/07/22 17:12:13;;;;;;;6.00;5.30;;;;;;;30.56;36.72;99763.89;213719;1279;139134;-64
2022/07/22 17:17:15;;;;;;;6.50;6.00;;;;;;;30.39;37.20;99765.47;215179;1278;140604;-65
2022/07/22 17:22:17;;;;;;;10.80;6.30;;;;;;;30.25;37.71;99766.25;215153;1279;140947;-64
2022/07/22 17:27:21;;;;;;;6.10;5.60;;;;;;;30.16;37.68;99767.51;215225;1278;140659;-64
2022/07/22 17:32:29;;;;;;;5.80;5.30;;;;;;;30.16;38.04;99768.05;214796;1279;140848;-63
2022/07/22 17:37:32;;;;;;;6.60;5.90;;;;;;;30.13;37.91;99772.55;214158;1279;139913;-63
2022/07/22 17:42:35;;;;;;;6.20;5.50;;;;;;;29.99;37.59;99771.64;213024;1279;140210;-63
2022/07/22 17:47:38;;;;;;;6.50;5.80;;;;;;;29.79;37.67;99771.33;213770;1277;139373;-63
2022/07/22 17:52:41;;;;;;;7.30;5.20;;;;;;;29.62;37.79;99779.29;213701;1277;1115393;-64
2022/07/22 17:57:45;;;;;;;6.20;5.50;;;;;;;29.44;37.78;99781.33;213956;1279;139774;-64
2022/07/22 18:02:47;;;;;;;17.20;6.50;;;;;;;29.27;38.15;99782.77;213107;1278;139281;-64
2022/07/22 18:07:51;;;;;;;7.20;6.40;;;;;;;29.11;38.71;99785.61;213446;1278;140276;-65
2022/07/22 18:12:55;;;;;;;6.70;6.10;;;;;;;28.96;39.26;99782.45;213541;1278;139780;-66
2022/07/22 18:17:59;;;;;;;12.20;6.10;;;;;;;28.77;39.78;99786.12;212928;1279;140084;-66
2022/07/22 18:23:01;;;;;;;7.10;6.20;;;;;;;28.56;40.30;99786.45;213949;1279;139687;-67
2022/07/22 18:28:05;;;;;;;8.30;6.70;;;;;;;28.35;40.88;99787.33;213446;1279;140068;-66
2022/07/22 18:33:11;;;;;;;34.40;7.90;;;;;;;28.11;41.68;99787.69;214262;1279;140514;-66
2022/07/22 18:38:14;;;;;;;7.30;6.70;;;;;;;27.86;42.27;99788.70;214356;1278;140367;-67
2022/07/22 18:43:17;;;;;;;7.40;6.20;;;;;;;27.58;42.58;99792.14;213245;1279;139716;-64
2022/07/22 18:48:20;;;;;;;13.70;7.90;;;;;;;27.32;43.41;99797.91;213660;1278;141236;-64
2022/07/22 18:53:24;;;;;;;7.00;6.30;;;;;;;27.06;44.03;99809.77;214138;1278;139796;-65
2022/07/22 18:58:27;;;;;;;6.80;6.20;;;;;;;26.80;44.86;99812.27;214799;1279;140602;-65
2022/07/22 19:03:30;;;;;;;15.80;7.50;;;;;;;26.53;45.82;99810.81;214801;1279;140914;-65
2022/07/22 19:08:33;;;;;;;6.60;6.10;;;;;;;26.28;46.71;99817.29;215291;1279;140083;-65
2022/07/22 19:13:38;;;;;;;6.30;5.80;;;;;;;26.02;47.19;99819.39;215340;1278;140515;-65
2022/07/22 19:18:42;;;;;;;8.20;7.40;;;;;;;25.76;47.85;99820.79;215218;1279;140298;-66
2022/07/22 19:23:46;;;;;;;10.50;6.10;;;;;;;25.55;48.24;99816.61;215043;1279;140417;-65
2022/07/22 19:28:49;;;;;;;10.30;6.60;;;;;;;25.34;49.08;99819.02;214266;1278;139421;-65
2022/07/22 19:33:55;;;;;;;8.20;7.10;;;;;;;25.10;49.41;99822.41;213436;1278;140469;-65
2022/07/22 19:38:58;;;;;;;7.60;6.90;;;;;;;24.90;50.36;99828.67;213703;1278;141444;-61
2022/07/22 19:44:02;;;;;;;9.00;7.50;;;;;;;24.67;50.68;99827.42;214242;1278;140739;-63
2022/07/22 19:49:06;;;;;;;9.30;8.30;;;;;;;24.44;51.23;99824.05;214143;1278;140643;-64
2022/07/22 19:54:12;;;;;;;8.40;7.60;;;;;;;24.02;51.38;99829.66;213458;1278;139328;-68
2022/07/22 19:59:16;;;;;;;8.80;7.90;;;;;;;23.66;52.05;99825.59;213663;1279;140031;-66
2022/07/22 20:04:20;;;;;;;8.00;7.40;;;;;;;23.54;53.05;99827.30;212553;1278;141264;-63
2022/07/22 20:09:24;;;;;;;13.70;7.50;;;;;;;23.34;53.66;99823.24;212829;1281;140440;-65
2022/07/22 20:14:27;;;;;;;9.10;7.90;;;;;;;23.12;54.07;99828.90;212824;1278;140687;-64
2022/07/22 20:19:29;;;;;;;7.90;7.20;;;;;;;22.90;54.42;99830.64;212659;1279;140225;-63
2022/07/22 20:24:32;;;;;;;9.30;8.50;;;;;;;22.80;54.86;99831.84;213243;1278;149782;-64
2022/07/22 20:29:35;;;;;;;16.40;9.00;;;;;;;22.66;55.17;99837.48;212550;1279;143736;-64
2022/07/22 20:34:37;;;;;;;12.80;8.50;;;;;;;22.38;55.26;99835.69;213991;1278;141195;-63
2022/07/22 20:39:43;;;;;;;11.40;9.20;;;;;;;22.28;55.91;99835.58;213897;1279;140214;-64
2022/07/22 20:44:45;;;;;;;9.80;8.80;;;;;;;22.20;56.27;99835.45;213046;1279;142624;-63
2022/07/22 20:49:48;;;;;;;8.50;7.60;;;;;;;22.02;56.33;99843.35;214849;1278;140156;-64
2022/07/22 20:54:52;;;;;;;9.40;8.20;;;;;;;21.80;56.74;99837.73;213984;1279;139638;-65
2022/07/22 20:59:55;;;;;;;8.10;7.40;;;;;;;21.74;57.16;99834.80;212968;1278;139926;-66
2022/07/22 21:04:58;;;;;;;8.70;7.90;;;;;;;21.46;57.16;99836.27;212732;1278;141703;-66
2022/07/22 21:10:02;;;;;;;12.30;7.50;;;;;;;21.08;57.84;99838.52;215349;1278;140171;-64
2022/07/22 21:15:06;;;;;;;11.50;8.40;;;;;;;20.88;58.62;99840.06;215380;1278;141541;-64
2022/07/22 21:20:09;;;;;;;10.10;8.20;;;;;;;20.78;58.97;99844.76;215002;1277;142205;-67
2022/07/22 21:25:12;;;;;;;9.60;8.70;;;;;;;20.79;59.45;99850.84;214460;1277;151506;-67
2022/07/22 21:30:15;;;;;;;11.00;7.60;;;;;;;20.75;59.29;99845.58;213418;1279;141281;-67
2022/07/22 21:35:19;;;;;;;9.50;8.70;;;;;;;20.65;59.65;99849.27;214959;1279;140295;-67
2022/07/22 21:40:24;;;;;;;14.50;10.30;;;;;;;20.66;59.88;99849.63;213268;1280;140990;-65
2022/07/22 21:45:30;;;;;;;12.20;10.10;;;;;;;20.65;59.96;99848.02;213013;1278;141706;-65
2022/07/22 21:50:35;;;;;;;14.40;10.40;;;;;;;20.59;60.19;99850.29;214128;1277;139841;-67
2022/07/22 21:55:37;;;;;;;9.50;8.60;;;;;;;20.38;60.44;99854.27;213351;1278;140982;-64
2022/07/22 22:00:40;;;;;;;15.30;8.60;;;;;;;20.20;60.91;99853.52;212966;1279;140838;-65
2022/07/22 22:05:44;;;;;;;11.00;9.50;;;;;;;20.14;61.11;99852.97;212746;1278;140151;-64
2022/07/22 22:10:47;;;;;;;12.60;8.10;;;;;;;20.08;61.45;99853.19;212848;1278;140516;-64
2022/07/22 22:15:56;;;;;;;14.10;8.90;;;;;;;20.03;61.77;99857.09;213667;1279;140633;-65
2022/07/22 22:20:59;;;;;;;13.40;8.60;;;;;;;19.88;61.81;99857.70;212953;1279;141310;-65
2022/07/22 22:26:02;;;;;;;13.40;8.70;;;;;;;19.53;61.83;99859.59;214317;1278;140427;-63
2022/07/22 22:31:05;;;;;;;11.20;9.60;;;;;;;19.30;62.64;99854.19;214335;1278;140219;-65
2022/07/22 22:36:09;;;;;;;13.80;9.30;;;;;;;19.19;63.15;99856.59;212915;1279;141058;-64
2022/07/22 22:41:12;;;;;;;19.70;9.70;;;;;;;19.23;63.64;99862.48;213073;1279;232117;-63
2022/07/22 22:46:15;;;;;;;12.00;10.60;;;;;;;19.30;63.75;99861.90;213942;1278;140817;-63
2022/07/22 22:51:19;;;;;;;12.70;10.30;;;;;;;19.27;63.50;99860.48;213145;1278;140878;-63
2022/07/22 22:56:22;;;;;;;15.40;10.30;;;;;;;19.00;63.52;99857.56;214515;1278;141275;-65
2022/07/22 23:01:28;;;;;;;13.90;9.70;;;;;;;18.85;64.06;99857.56;215505;1278;141273;-66
2022/07/22 23:06:34;;;;;;;13.50;10.90;;;;;;;18.90;64.50;99859.03;215226;1277;140598;-64
2022/07/22 23:11:37;;;;;;;12.20;11.00;;;;;;;18.88;64.50;99860.79;215394;1278;140701;-64